sensor_id;sensor_type;location;lat;lon;timestamp;temperature;humidity
28654;DHT22;24320;56.980;24.336;2023-06-22T00:21:55;18.30;99.90
28654;DHT22;24320;56.980;24.336;2023-06-22T00:24:24;18.30;99.90
28654;DHT22;24320;56.980;24.336;2023-06-22T00:26:51;18.30;99.90
28654;DHT22;24320;56.980;24.336;2023-06-22T00:29:18;18.30;99.90
28654;DHT22;24320;56.980;24.336;2023-06-22T00:31:45;18.20;99.90
28654;DHT22;24320;56.980;24.336;2023-06-22T00:34:12;18.20;99.90
28654;DHT22;24320;56.980;24.336;2023-06-22T00:36:39;18.10;99.90
28654;DHT22;24320;56.980;24.336;2023-06-22T00:39:07;18.10;99.90
28654;DHT22;24320;56.980;24.336;2023-06-22T00:41:34;18.00;99.90
28654;DHT22;24320;56.980;24.336;2023-06-22T00:44:01;18.00;99.90
28654;DHT22;24320;56.980;24.336;2023-06-22T00:46:29;18.00;99.90
28654;DHT22;24320;56.980;24.336;2023-06-22T00:48:56;18.00;99.90
28654;DHT22;24320;56.980;24.336;2023-06-22T00:51:24;18.00;99.90
28654;DHT22;24320;56.980;24.336;2023-06-22T00:53:51;18.00;99.90
28654;DHT22;24320;56.980;24.336;2023-06-22T00:56:20;18.00;99.90
28654;DHT22;24320;56.980;24.336;2023-06-22T00:58:51;18.00;99.90
28654;DHT22;24320;56.980;24.336;2023-06-22T01:01:23;18.10;99.90
28654;DHT22;24320;56.980;24.336;2023-06-22T01:03:51;18.20;99.90
28654;DHT22;24320;56.980;24.336;2023-06-22T01:06:32;18.20;99.90
28654;DHT22;24320;56.980;24.336;2023-06-22T01:09:23;18.20;99.90
28654;DHT22;24320;56.980;24.336;2023-06-22T01:11:57;18.30;99.90
28654;DHT22;24320;56.980;24.336;2023-06-22T01:14:37;18.20;99.90
28654;DHT22;24320;56.980;24.336;2023-06-22T01:17:08;18.30;99.90
28654;DHT22;24320;56.980;24.336;2023-06-22T05:29:07;21.80;99.90
28654;DHT22;24320;56.980;24.336;2023-06-22T05:31:34;21.80;99.90
28654;DHT22;24320;56.980;24.336;2023-06-22T05:34:01;21.70;99.90
28654;DHT22;24320;56.980;24.336;2023-06-22T05:36:29;21.60;99.90
28654;DHT22;24320;56.980;24.336;2023-06-22T05:38:57;21.50;99.90
28654;DHT22;24320;56.980;24.336;2023-06-22T05:41:25;21.40;99.90
28654;DHT22;24320;56.980;24.336;2023-06-22T05:43:52;21.40;99.90
28654;DHT22;24320;56.980;24.336;2023-06-22T05:46:19;21.40;99.90
28654;DHT22;24320;56.980;24.336;2023-06-22T05:48:46;21.30;99.90
28654;DHT22;24320;56.980;24.336;2023-06-22T05:51:14;21.20;99.90
28654;DHT22;24320;56.980;24.336;2023-06-22T05:53:41;21.20;99.90
28654;DHT22;24320;56.980;24.336;2023-06-22T05:56:08;21.10;99.90
28654;DHT22;24320;56.980;24.336;2023-06-22T05:58:35;21.00;99.90
28654;DHT22;24320;56.980;24.336;2023-06-22T06:01:02;20.90;99.90
28654;DHT22;24320;56.980;24.336;2023-06-22T06:03:29;20.80;99.90
28654;DHT22;24320;56.980;24.336;2023-06-22T06:05:56;20.70;99.90
28654;DHT22;24320;56.980;24.336;2023-06-22T06:08:25;20.50;99.90
28654;DHT22;24320;56.980;24.336;2023-06-22T06:10:55;20.40;99.90
28654;DHT22;24320;56.980;24.336;2023-06-22T06:13:23;20.20;99.90
28654;DHT22;24320;56.980;24.336;2023-06-22T06:15:50;20.10;99.90
28654;DHT22;24320;56.980;24.336;2023-06-22T06:18:18;20.10;99.90
28654;DHT22;24320;56.980;24.336;2023-06-22T06:20:45;20.00;99.90
28654;DHT22;24320;56.980;24.336;2023-06-22T06:23:12;19.90;99.90
28654;DHT22;24320;56.980;24.336;2023-06-22T06:25:40;19.80;99.90
28654;DHT22;24320;56.980;24.336;2023-06-22T06:28:07;19.70;99.90
28654;DHT22;24320;56.980;24.336;2023-06-22T06:30:34;19.70;99.90
28654;DHT22;24320;56.980;24.336;2023-06-22T06:33:04;19.70;99.90
28654;DHT22;24320;56.980;24.336;2023-06-22T06:35:36;19.60;99.90
28654;DHT22;24320;56.980;24.336;2023-06-22T06:38:04;19.60;99.90
28654;DHT22;24320;56.980;24.336;2023-06-22T06:40:31;19.60;99.90
28654;DHT22;24320;56.980;24.336;2023-06-22T06:42:59;19.60;99.90
28654;DHT22;24320;56.980;24.336;2023-06-22T06:45:26;19.60;99.90
28654;DHT22;24320;56.980;24.336;2023-06-22T06:47:55;19.50;99.90
28654;DHT22;24320;56.980;24.336;2023-06-22T06:50:22;19.50;99.90
28654;DHT22;24320;56.980;24.336;2023-06-22T06:52:49;19.50;99.90
28654;DHT22;24320;56.980;24.336;2023-06-22T06:55:19;19.50;99.90
28654;DHT22;24320;56.980;24.336;2023-06-22T06:57:47;19.60;99.90
28654;DHT22;24320;56.980;24.336;2023-06-22T07:00:15;19.60;99.90
28654;DHT22;24320;56.980;24.336;2023-06-22T07:02:43;19.60;99.90
28654;DHT22;24320;56.980;24.336;2023-06-22T07:05:12;19.70;99.90
28654;DHT22;24320;56.980;24.336;2023-06-22T07:07:39;19.70;99.90
28654;DHT22;24320;56.980;24.336;2023-06-22T07:10:09;19.70;99.90
28654;DHT22;24320;56.980;24.336;2023-06-22T07:12:36;19.80;99.90
28654;DHT22;24320;56.980;24.336;2023-06-22T07:15:09;19.80;99.90
28654;DHT22;24320;56.980;24.336;2023-06-22T07:17:37;19.90;99.90
28654;DHT22;24320;56.980;24.336;2023-06-22T07:20:07;19.90;99.90
28654;DHT22;24320;56.980;24.336;2023-06-22T07:22:40;20.00;99.90
28654;DHT22;24320;56.980;24.336;2023-06-22T07:25:08;20.00;99.90
28654;DHT22;24320;56.980;24.336;2023-06-22T07:27:47;20.20;99.90
28654;DHT22;24320;56.980;24.336;2023-06-22T07:30:22;20.20;99.90
28654;DHT22;24320;56.980;24.336;2023-06-22T07:32:50;20.30;99.90
28654;DHT22;24320;56.980;24.336;2023-06-22T07:35:17;20.40;99.90
28654;DHT22;24320;56.980;24.336;2023-06-22T07:37:44;20.50;99.90
28654;DHT22;24320;56.980;24.336;2023-06-22T07:40:12;20.50;99.90
28654;DHT22;24320;56.980;24.336;2023-06-22T07:42:39;20.60;99.90
28654;DHT22;24320;56.980;24.336;2023-06-22T07:45:07;20.70;99.90
28654;DHT22;24320;56.980;24.336;2023-06-22T07:47:37;20.70;99.90
28654;DHT22;24320;56.980;24.336;2023-06-22T07:50:05;20.90;99.90
28654;DHT22;24320;56.980;24.336;2023-06-22T07:52:32;21.00;99.90
28654;DHT22;24320;56.980;24.336;2023-06-22T07:55:00;21.20;99.90
28654;DHT22;24320;56.980;24.336;2023-06-22T07:57:28;21.40;99.90
28654;DHT22;24320;56.980;24.336;2023-06-22T08:00:05;21.60;99.90
28654;DHT22;24320;56.980;24.336;2023-06-22T08:02:45;21.70;99.90
28654;DHT22;24320;56.980;24.336;2023-06-22T08:05:15;21.90;99.90
28654;DHT22;24320;56.980;24.336;2023-06-22T08:07:45;22.30;99.90
28654;DHT22;24320;56.980;24.336;2023-06-22T08:10:14;22.60;99.90
28654;DHT22;24320;56.980;24.336;2023-06-22T08:12:42;22.70;99.90
28654;DHT22;24320;56.980;24.336;2023-06-22T08:15:09;22.80;99.90
28654;DHT22;24320;56.980;24.336;2023-06-22T08:17:37;22.80;99.90
28654;DHT22;24320;56.980;24.336;2023-06-22T08:20:06;22.70;99.90
28654;DHT22;24320;56.980;24.336;2023-06-22T08:22:36;22.60;99.90
28654;DHT22;24320;56.980;24.336;2023-06-22T08:25:04;22.50;99.90
28654;DHT22;24320;56.980;24.336;2023-06-22T08:27:31;22.40;99.90
28654;DHT22;24320;56.980;24.336;2023-06-22T08:29:59;22.30;99.90
28654;DHT22;24320;56.980;24.336;2023-06-22T08:32:30;22.20;99.90
28654;DHT22;24320;56.980;24.336;2023-06-22T08:35:00;22.30;99.90
28654;DHT22;24320;56.980;24.336;2023-06-22T08:37:28;22.60;99.90
28654;DHT22;24320;56.980;24.336;2023-06-22T08:40:06;23.00;99.90
28654;DHT22;24320;56.980;24.336;2023-06-22T08:42:39;23.30;99.90
28654;DHT22;24320;56.980;24.336;2023-06-22T08:45:07;23.40;99.90
28654;DHT22;24320;56.980;24.336;2023-06-22T08:47:34;23.40;99.90
28654;DHT22;24320;56.980;24.336;2023-06-22T08:50:03;23.20;99.90
28654;DHT22;24320;56.980;24.336;2023-06-22T08:52:30;22.80;99.90
28654;DHT22;24320;56.980;24.336;2023-06-22T08:54:57;22.40;99.90
28654;DHT22;24320;56.980;24.336;2023-06-22T08:57:27;22.10;99.90
28654;DHT22;24320;56.980;24.336;2023-06-22T08:59:55;22.00;99.90
28654;DHT22;24320;56.980;24.336;2023-06-22T09:02:26;21.80;99.90
28654;DHT22;24320;56.980;24.336;2023-06-22T09:04:58;21.80;99.90
28654;DHT22;24320;56.980;24.336;2023-06-22T09:07:26;21.80;99.90
28654;DHT22;24320;56.980;24.336;2023-06-22T09:09:53;22.00;99.90
28654;DHT22;24320;56.980;24.336;2023-06-22T09:12:20;22.30;99.90
28654;DHT22;24320;56.980;24.336;2023-06-22T09:14:51;22.70;99.90
28654;DHT22;24320;56.980;24.336;2023-06-22T09:17:19;23.00;99.90
28654;DHT22;24320;56.980;24.336;2023-06-22T09:19:46;23.20;99.90
28654;DHT22;24320;56.980;24.336;2023-06-22T09:22:14;23.20;99.90
28654;DHT22;24320;56.980;24.336;2023-06-22T09:24:41;23.00;99.90
28654;DHT22;24320;56.980;24.336;2023-06-22T09:27:08;22.70;99.90
28654;DHT22;24320;56.980;24.336;2023-06-22T09:29:36;22.60;99.90
28654;DHT22;24320;56.980;24.336;2023-06-22T09:32:03;22.60;99.90
28654;DHT22;24320;56.980;24.336;2023-06-22T09:34:30;22.50;99.90
28654;DHT22;24320;56.980;24.336;2023-06-22T09:36:58;22.70;99.90
28654;DHT22;24320;56.980;24.336;2023-06-22T09:39:27;23.10;99.90
28654;DHT22;24320;56.980;24.336;2023-06-22T09:41:54;23.50;99.90
28654;DHT22;24320;56.980;24.336;2023-06-22T09:44:21;23.70;99.90
28654;DHT22;24320;56.980;24.336;2023-06-22T09:46:48;23.80;99.90
28654;DHT22;24320;56.980;24.336;2023-06-22T09:49:15;24.10;99.90
28654;DHT22;24320;56.980;24.336;2023-06-22T09:51:43;24.20;99.90
28654;DHT22;24320;56.980;24.336;2023-06-22T09:54:10;24.20;99.90
28654;DHT22;24320;56.980;24.336;2023-06-22T09:56:37;24.20;99.90
28654;DHT22;24320;56.980;24.336;2023-06-22T09:59:04;24.20;99.90
28654;DHT22;24320;56.980;24.336;2023-06-22T10:01:44;24.30;99.90
28654;DHT22;24320;56.980;24.336;2023-06-22T11:06:22;22.60;99.90
28654;DHT22;24320;56.980;24.336;2023-06-22T11:08:49;22.60;99.90
28654;DHT22;24320;56.980;24.336;2023-06-22T11:11:36;22.50;99.90
28654;DHT22;24320;56.980;24.336;2023-06-22T11:14:03;22.50;99.90
28654;DHT22;24320;56.980;24.336;2023-06-22T11:16:30;22.50;99.90
28654;DHT22;24320;56.980;24.336;2023-06-22T11:18:57;22.50;99.90
28654;DHT22;24320;56.980;24.336;2023-06-22T11:21:24;22.50;99.90
28654;DHT22;24320;56.980;24.336;2023-06-22T11:23:51;22.50;99.90
28654;DHT22;24320;56.980;24.336;2023-06-22T11:26:18;22.40;99.90
28654;DHT22;24320;56.980;24.336;2023-06-22T11:28:46;22.30;99.90
28654;DHT22;24320;56.980;24.336;2023-06-22T11:31:14;22.20;99.90
28654;DHT22;24320;56.980;24.336;2023-06-22T11:33:44;22.20;99.90
28654;DHT22;24320;56.980;24.336;2023-06-22T11:36:13;22.20;99.90
28654;DHT22;24320;56.980;24.336;2023-06-22T11:38:41;22.10;99.90
28654;DHT22;24320;56.980;24.336;2023-06-22T11:41:08;22.20;99.90
28654;DHT22;24320;56.980;24.336;2023-06-22T11:43:36;22.10;99.90
28654;DHT22;24320;56.980;24.336;2023-06-22T11:46:04;22.20;99.90
28654;DHT22;24320;56.980;24.336;2023-06-22T11:48:31;22.20;99.90
28654;DHT22;24320;56.980;24.336;2023-06-22T11:50:58;22.20;99.90
28654;DHT22;24320;56.980;24.336;2023-06-22T11:53:26;22.20;99.90
28654;DHT22;24320;56.980;24.336;2023-06-22T11:55:54;22.10;99.90
28654;DHT22;24320;56.980;24.336;2023-06-22T11:58:22;21.90;99.90
28654;DHT22;24320;56.980;24.336;2023-06-22T12:00:49;21.80;99.90
28654;DHT22;24320;56.980;24.336;2023-06-22T12:03:18;21.80;99.90
28654;DHT22;24320;56.980;24.336;2023-06-22T12:05:46;21.90;99.90
28654;DHT22;24320;56.980;24.336;2023-06-22T12:08:14;22.00;99.90
28654;DHT22;24320;56.980;24.336;2023-06-22T12:10:41;22.10;99.90
28654;DHT22;24320;56.980;24.336;2023-06-22T12:13:08;22.30;99.90
28654;DHT22;24320;56.980;24.336;2023-06-22T12:15:35;22.50;99.90
28654;DHT22;24320;56.980;24.336;2023-06-22T12:18:02;22.70;99.90
28654;DHT22;24320;56.980;24.336;2023-06-22T12:20:29;23.00;99.90
28654;DHT22;24320;56.980;24.336;2023-06-22T12:22:57;23.30;99.90
28654;DHT22;24320;56.980;24.336;2023-06-22T12:25:25;23.50;99.90
28654;DHT22;24320;56.980;24.336;2023-06-22T12:27:52;23.60;99.90
28654;DHT22;24320;56.980;24.336;2023-06-22T12:30:19;23.70;99.90
28654;DHT22;24320;56.980;24.336;2023-06-22T12:32:46;23.60;99.90
28654;DHT22;24320;56.980;24.336;2023-06-22T12:35:13;23.50;99.90
28654;DHT22;24320;56.980;24.336;2023-06-22T12:37:44;23.40;99.90
28654;DHT22;24320;56.980;24.336;2023-06-22T12:40:14;23.20;99.90
28654;DHT22;24320;56.980;24.336;2023-06-22T12:42:41;23.20;99.90
28654;DHT22;24320;56.980;24.336;2023-06-22T12:45:09;23.30;99.90
28654;DHT22;24320;56.980;24.336;2023-06-22T12:47:36;23.40;99.90
28654;DHT22;24320;56.980;24.336;2023-06-22T12:50:04;23.50;99.90
28654;DHT22;24320;56.980;24.336;2023-06-22T12:52:31;23.70;99.90
28654;DHT22;24320;56.980;24.336;2023-06-22T12:54:59;23.90;99.90
28654;DHT22;24320;56.980;24.336;2023-06-22T12:57:26;23.90;99.90
28654;DHT22;24320;56.980;24.336;2023-06-22T12:59:53;24.10;99.90
28654;DHT22;24320;56.980;24.336;2023-06-22T13:02:20;24.20;99.90
28654;DHT22;24320;56.980;24.336;2023-06-22T13:04:47;24.30;99.90
28654;DHT22;24320;56.980;24.336;2023-06-22T13:07:14;24.30;99.90
28654;DHT22;24320;56.980;24.336;2023-06-22T13:09:50;24.20;99.90
28654;DHT22;24320;56.980;24.336;2023-06-22T13:12:20;24.10;99.90
28654;DHT22;24320;56.980;24.336;2023-06-22T13:14:48;23.90;99.90
28654;DHT22;24320;56.980;24.336;2023-06-22T13:17:15;23.80;99.90
28654;DHT22;24320;56.980;24.336;2023-06-22T13:19:42;23.80;99.90
28654;DHT22;24320;56.980;24.336;2023-06-22T13:22:30;23.80;99.90
28654;DHT22;24320;56.980;24.336;2023-06-22T13:24:58;23.80;99.90
28654;DHT22;24320;56.980;24.336;2023-06-22T13:27:25;23.70;99.90
28654;DHT22;24320;56.980;24.336;2023-06-22T13:29:53;23.70;99.90
28654;DHT22;24320;56.980;24.336;2023-06-22T13:32:20;23.80;99.90
28654;DHT22;24320;56.980;24.336;2023-06-22T13:34:47;23.80;99.90
28654;DHT22;24320;56.980;24.336;2023-06-22T13:37:14;23.90;99.90
28654;DHT22;24320;56.980;24.336;2023-06-22T13:39:41;24.00;99.90
28654;DHT22;24320;56.980;24.336;2023-06-22T13:42:08;24.20;99.90
28654;DHT22;24320;56.980;24.336;2023-06-22T13:44:35;24.40;99.90
28654;DHT22;24320;56.980;24.336;2023-06-22T13:47:03;24.50;99.90
28654;DHT22;24320;56.980;24.336;2023-06-22T13:49:31;24.70;99.90
28654;DHT22;24320;56.980;24.336;2023-06-22T13:51:59;24.80;99.90
28654;DHT22;24320;56.980;24.336;2023-06-22T13:54:26;24.90;99.90
28654;DHT22;24320;56.980;24.336;2023-06-22T13:56:56;24.90;99.90
28654;DHT22;24320;56.980;24.336;2023-06-22T13:59:23;24.90;99.90
28654;DHT22;24320;56.980;24.336;2023-06-22T14:01:50;25.00;99.90
28654;DHT22;24320;56.980;24.336;2023-06-22T14:04:17;25.00;99.90
28654;DHT22;24320;56.980;24.336;2023-06-22T14:06:44;25.00;99.90
28654;DHT22;24320;56.980;24.336;2023-06-22T14:09:11;24.90;99.90
28654;DHT22;24320;56.980;24.336;2023-06-22T14:11:38;24.80;99.90
28654;DHT22;24320;56.980;24.336;2023-06-22T14:14:05;24.90;99.90
28654;DHT22;24320;56.980;24.336;2023-06-22T14:16:32;24.90;99.90
28654;DHT22;24320;56.980;24.336;2023-06-22T14:19:00;24.90;99.90
28654;DHT22;24320;56.980;24.336;2023-06-22T14:21:27;25.00;99.90
28654;DHT22;24320;56.980;24.336;2023-06-22T14:23:54;25.10;99.90
28654;DHT22;24320;56.980;24.336;2023-06-22T14:26:21;25.30;99.90
28654;DHT22;24320;56.980;24.336;2023-06-22T14:28:49;25.40;99.90
28654;DHT22;24320;56.980;24.336;2023-06-22T14:31:18;25.40;99.90
28654;DHT22;24320;56.980;24.336;2023-06-22T14:33:49;25.00;99.90
28654;DHT22;24320;56.980;24.336;2023-06-22T14:36:16;24.50;99.90
28654;DHT22;24320;56.980;24.336;2023-06-22T14:38:46;24.10;99.90
28654;DHT22;24320;56.980;24.336;2023-06-22T14:41:14;23.80;99.90
28654;DHT22;24320;56.980;24.336;2023-06-22T14:43:49;23.70;99.90
28654;DHT22;24320;56.980;24.336;2023-06-22T14:46:18;23.60;99.90
28654;DHT22;24320;56.980;24.336;2023-06-22T14:48:46;23.40;99.90
28654;DHT22;24320;56.980;24.336;2023-06-22T14:51:14;23.30;99.90
28654;DHT22;24320;56.980;24.336;2023-06-22T14:53:46;23.40;99.90
28654;DHT22;24320;56.980;24.336;2023-06-22T14:56:14;23.40;99.90
28654;DHT22;24320;56.980;24.336;2023-06-22T14:58:43;23.40;99.90
28654;DHT22;24320;56.980;24.336;2023-06-22T15:01:16;23.50;99.90
28654;DHT22;24320;56.980;24.336;2023-06-22T15:03:43;23.60;99.90
28654;DHT22;24320;56.980;24.336;2023-06-22T15:06:10;23.60;99.90
28654;DHT22;24320;56.980;24.336;2023-06-22T15:08:39;23.60;99.90
28654;DHT22;24320;56.980;24.336;2023-06-22T15:11:06;23.60;99.90
28654;DHT22;24320;56.980;24.336;2023-06-22T15:13:33;23.50;99.90
28654;DHT22;24320;56.980;24.336;2023-06-22T15:16:02;23.40;99.90
28654;DHT22;24320;56.980;24.336;2023-06-22T15:18:31;23.50;99.90
28654;DHT22;24320;56.980;24.336;2023-06-22T15:21:00;23.50;99.90
28654;DHT22;24320;56.980;24.336;2023-06-22T15:23:29;23.70;99.90
28654;DHT22;24320;56.980;24.336;2023-06-22T15:25:57;23.70;99.90
28654;DHT22;24320;56.980;24.336;2023-06-22T15:28:24;23.70;99.90
28654;DHT22;24320;56.980;24.336;2023-06-22T15:30:51;23.70;99.90
28654;DHT22;24320;56.980;24.336;2023-06-22T15:33:19;23.70;99.90
28654;DHT22;24320;56.980;24.336;2023-06-22T15:35:46;23.60;99.90
28654;DHT22;24320;56.980;24.336;2023-06-22T15:38:13;23.50;99.90
28654;DHT22;24320;56.980;24.336;2023-06-22T15:40:40;23.30;99.90
28654;DHT22;24320;56.980;24.336;2023-06-22T15:43:11;23.10;99.90
28654;DHT22;24320;56.980;24.336;2023-06-22T15:45:39;23.00;99.90
28654;DHT22;24320;56.980;24.336;2023-06-22T15:48:07;23.00;99.90
28654;DHT22;24320;56.980;24.336;2023-06-22T15:50:34;23.00;99.90
28654;DHT22;24320;56.980;24.336;2023-06-22T15:53:01;22.90;99.90
28654;DHT22;24320;56.980;24.336;2023-06-22T15:55:28;22.90;99.90
28654;DHT22;24320;56.980;24.336;2023-06-22T15:57:57;22.90;99.90
28654;DHT22;24320;56.980;24.336;2023-06-22T16:00:26;23.00;99.90
28654;DHT22;24320;56.980;24.336;2023-06-22T16:02:53;22.90;99.90
28654;DHT22;24320;56.980;24.336;2023-06-22T16:05:20;22.90;99.90
28654;DHT22;24320;56.980;24.336;2023-06-22T16:07:47;22.80;99.90
28654;DHT22;24320;56.980;24.336;2023-06-22T16:10:15;22.70;99.90
28654;DHT22;24320;56.980;24.336;2023-06-22T16:12:43;22.70;99.90
28654;DHT22;24320;56.980;24.336;2023-06-22T16:15:11;22.80;99.90
28654;DHT22;24320;56.980;24.336;2023-06-22T16:17:38;22.80;99.90
28654;DHT22;24320;56.980;24.336;2023-06-22T16:20:06;22.90;99.90
28654;DHT22;24320;56.980;24.336;2023-06-22T16:22:34;22.90;99.90
28654;DHT22;24320;56.980;24.336;2023-06-22T16:25:01;23.00;99.90
28654;DHT22;24320;56.980;24.336;2023-06-22T16:27:29;22.90;99.90
28654;DHT22;24320;56.980;24.336;2023-06-22T16:29:57;22.90;99.90
28654;DHT22;24320;56.980;24.336;2023-06-22T16:32:25;22.90;99.90
28654;DHT22;24320;56.980;24.336;2023-06-22T16:34:52;22.90;99.90
28654;DHT22;24320;56.980;24.336;2023-06-22T16:37:20;22.90;99.90
28654;DHT22;24320;56.980;24.336;2023-06-22T16:39:47;23.00;99.90
28654;DHT22;24320;56.980;24.336;2023-06-22T16:42:14;23.10;99.90
28654;DHT22;24320;56.980;24.336;2023-06-22T16:44:41;23.00;99.90
28654;DHT22;24320;56.980;24.336;2023-06-22T16:47:08;22.90;99.90
28654;DHT22;24320;56.980;24.336;2023-06-22T16:49:35;22.80;99.90
28654;DHT22;24320;56.980;24.336;2023-06-22T16:52:04;22.70;99.90
28654;DHT22;24320;56.980;24.336;2023-06-22T16:54:31;22.50;99.90
28654;DHT22;24320;56.980;24.336;2023-06-22T16:57:00;22.40;99.90
28654;DHT22;24320;56.980;24.336;2023-06-22T16:59:28;22.20;99.90
28654;DHT22;24320;56.980;24.336;2023-06-22T17:01:56;22.20;99.90
28654;DHT22;24320;56.980;24.336;2023-06-22T17:04:25;22.10;99.90
28654;DHT22;24320;56.980;24.336;2023-06-22T17:07:14;21.90;99.90
28654;DHT22;24320;56.980;24.336;2023-06-22T17:09:45;21.80;99.90
28654;DHT22;24320;56.980;24.336;2023-06-22T17:12:13;21.60;99.90
28654;DHT22;24320;56.980;24.336;2023-06-22T17:14:41;21.50;99.90
28654;DHT22;24320;56.980;24.336;2023-06-22T17:17:16;21.30;99.90
28654;DHT22;24320;56.980;24.336;2023-06-22T17:19:48;21.20;99.90
28654;DHT22;24320;56.980;24.336;2023-06-22T17:22:15;21.20;99.90
28654;DHT22;24320;56.980;24.336;2023-06-22T17:24:43;21.10;99.90
28654;DHT22;24320;56.980;24.336;2023-06-22T17:27:10;21.00;99.90
28654;DHT22;24320;56.980;24.336;2023-06-22T17:29:37;20.80;99.90
28654;DHT22;24320;56.980;24.336;2023-06-22T17:32:05;20.70;99.90
28654;DHT22;24320;56.980;24.336;2023-06-22T17:34:32;20.60;99.90
28654;DHT22;24320;56.980;24.336;2023-06-22T17:37:01;20.50;99.90
28654;DHT22;24320;56.980;24.336;2023-06-22T17:39:28;20.40;99.90
28654;DHT22;24320;56.980;24.336;2023-06-22T17:41:56;20.40;99.90
28654;DHT22;24320;56.980;24.336;2023-06-22T17:44:27;20.40;99.90
28654;DHT22;24320;56.980;24.336;2023-06-22T17:46:57;20.40;99.90
28654;DHT22;24320;56.980;24.336;2023-06-22T17:49:28;20.40;99.90
28654;DHT22;24320;56.980;24.336;2023-06-22T17:51:56;20.30;99.90
28654;DHT22;24320;56.980;24.336;2023-06-22T17:54:29;20.20;99.90
28654;DHT22;24320;56.980;24.336;2023-06-22T17:57:26;20.10;99.90
28654;DHT22;24320;56.980;24.336;2023-06-22T17:59:53;20.10;99.90
28654;DHT22;24320;56.980;24.336;2023-06-22T18:02:23;20.00;99.90
28654;DHT22;24320;56.980;24.336;2023-06-22T18:04:55;19.90;99.90
28654;DHT22;24320;56.980;24.336;2023-06-22T18:07:24;19.90;99.90
28654;DHT22;24320;56.980;24.336;2023-06-22T18:09:53;19.90;99.90
28654;DHT22;24320;56.980;24.336;2023-06-22T18:12:21;19.80;99.90
28654;DHT22;24320;56.980;24.336;2023-06-22T18:14:48;19.80;99.90
28654;DHT22;24320;56.980;24.336;2023-06-22T18:17:16;19.70;99.90
28654;DHT22;24320;56.980;24.336;2023-06-22T18:19:46;19.60;99.90
28654;DHT22;24320;56.980;24.336;2023-06-22T18:22:14;19.60;99.90
28654;DHT22;24320;56.980;24.336;2023-06-22T18:24:42;19.60;99.90
28654;DHT22;24320;56.980;24.336;2023-06-22T18:27:11;19.50;99.90
28654;DHT22;24320;56.980;24.336;2023-06-22T18:29:39;19.40;99.90
28654;DHT22;24320;56.980;24.336;2023-06-22T18:32:07;19.40;99.90
28654;DHT22;24320;56.980;24.336;2023-06-22T18:34:35;19.30;99.90
28654;DHT22;24320;56.980;24.336;2023-06-22T18:37:05;19.30;99.90
28654;DHT22;24320;56.980;24.336;2023-06-22T18:39:36;19.20;99.90
28654;DHT22;24320;56.980;24.336;2023-06-22T18:42:07;19.10;99.90
28654;DHT22;24320;56.980;24.336;2023-06-22T18:44:35;19.10;99.90
28654;DHT22;24320;56.980;24.336;2023-06-22T18:47:08;19.00;99.90
28654;DHT22;24320;56.980;24.336;2023-06-22T18:52:11;18.80;99.90
28654;DHT22;24320;56.980;24.336;2023-06-22T18:54:42;18.70;99.90
28654;DHT22;24320;56.980;24.336;2023-06-22T18:57:14;18.60;99.90
28654;DHT22;24320;56.980;24.336;2023-06-22T18:59:50;18.50;99.90
28654;DHT22;24320;56.980;24.336;2023-06-22T19:02:33;18.40;99.90
28654;DHT22;24320;56.980;24.336;2023-06-22T19:05:14;18.30;99.90
28654;DHT22;24320;56.980;24.336;2023-06-22T19:15:43;17.90;99.90
28654;DHT22;24320;56.980;24.336;2023-06-22T19:18:18;17.90;99.90
28654;DHT22;24320;56.980;24.336;2023-06-22T19:20:51;17.80;99.90
28654;DHT22;24320;56.980;24.336;2023-06-22T19:25:55;17.50;99.90
28654;DHT22;24320;56.980;24.336;2023-06-22T19:28:25;17.40;99.90
28654;DHT22;24320;56.980;24.336;2023-06-22T19:30:57;17.30;99.90
28654;DHT22;24320;56.980;24.336;2023-06-22T19:33:26;17.20;99.90
28654;DHT22;24320;56.980;24.336;2023-06-22T19:35:55;17.10;99.90
28654;DHT22;24320;56.980;24.336;2023-06-22T19:38:25;17.00;99.90
28654;DHT22;24320;56.980;24.336;2023-06-22T19:40:56;16.90;99.90
28654;DHT22;24320;56.980;24.336;2023-06-22T19:43:30;16.80;99.90
28654;DHT22;24320;56.980;24.336;2023-06-22T19:45:58;16.70;99.90
28654;DHT22;24320;56.980;24.336;2023-06-22T19:48:29;16.60;99.90
28654;DHT22;24320;56.980;24.336;2023-06-22T19:51:04;16.50;99.90
28654;DHT22;24320;56.980;24.336;2023-06-22T19:53:31;16.50;99.90
28654;DHT22;24320;56.980;24.336;2023-06-22T19:55:59;16.40;99.90
28654;DHT22;24320;56.980;24.336;2023-06-22T19:58:31;16.40;99.90
28654;DHT22;24320;56.980;24.336;2023-06-22T20:01:00;16.30;99.90
28654;DHT22;24320;56.980;24.336;2023-06-22T20:03:29;16.30;99.90
28654;DHT22;24320;56.980;24.336;2023-06-22T20:06:13;16.20;99.90
28654;DHT22;24320;56.980;24.336;2023-06-22T20:08:49;16.10;99.90
28654;DHT22;24320;56.980;24.336;2023-06-22T20:11:24;16.10;99.90
28654;DHT22;24320;56.980;24.336;2023-06-22T20:13:56;16.00;99.90
28654;DHT22;24320;56.980;24.336;2023-06-22T20:16:30;16.00;99.90
28654;DHT22;24320;56.980;24.336;2023-06-22T20:19:11;15.90;99.90
28654;DHT22;24320;56.980;24.336;2023-06-22T20:21:40;15.90;99.90
28654;DHT22;24320;56.980;24.336;2023-06-22T20:24:10;15.90;99.90
28654;DHT22;24320;56.980;24.336;2023-06-22T20:26:44;15.80;99.90
28654;DHT22;24320;56.980;24.336;2023-06-22T20:29:31;15.80;99.90
28654;DHT22;24320;56.980;24.336;2023-06-22T20:32:08;15.70;99.90
28654;DHT22;24320;56.980;24.336;2023-06-22T20:34:38;15.70;99.90
28654;DHT22;24320;56.980;24.336;2023-06-22T20:37:08;15.70;99.90
28654;DHT22;24320;56.980;24.336;2023-06-22T20:39:35;15.70;99.90
28654;DHT22;24320;56.980;24.336;2023-06-22T20:42:03;15.70;99.90
28654;DHT22;24320;56.980;24.336;2023-06-22T20:44:31;15.60;99.90
28654;DHT22;24320;56.980;24.336;2023-06-22T20:46:58;15.60;99.90
28654;DHT22;24320;56.980;24.336;2023-06-22T20:49:25;15.60;99.90
28654;DHT22;24320;56.980;24.336;2023-06-22T20:51:55;15.70;99.90
28654;DHT22;24320;56.980;24.336;2023-06-22T20:54:22;15.70;99.90
28654;DHT22;24320;56.980;24.336;2023-06-22T20:56:49;15.70;99.90
28654;DHT22;24320;56.980;24.336;2023-06-22T20:59:17;15.80;99.90
28654;DHT22;24320;56.980;24.336;2023-06-22T21:01:44;15.80;99.90
28654;DHT22;24320;56.980;24.336;2023-06-22T21:04:13;15.80;99.90
28654;DHT22;24320;56.980;24.336;2023-06-22T21:06:40;15.80;99.90
28654;DHT22;24320;56.980;24.336;2023-06-22T21:09:07;16.00;99.90
28654;DHT22;24320;56.980;24.336;2023-06-22T21:11:34;16.10;99.90